createdAt,value
2022-10-16T00:00:52.219Z,6.90
2022-10-16T00:03:40.789Z,5.00
2022-10-16T00:06:32.293Z,4.60
2022-10-16T00:09:19.717Z,7.17
2022-10-16T00:12:08.019Z,6.30
2022-10-16T00:14:55.673Z,3.70
2022-10-16T00:17:42.749Z,6.87
2022-10-16T00:20:32.124Z,5.87
2022-10-16T00:23:19.776Z,3.40
2022-10-16T00:26:09.914Z,6.13
2022-10-16T00:28:57.377Z,5.13
2022-10-16T00:31:44.803Z,4.53
2022-10-16T00:34:32.463Z,7.60
2022-10-16T00:37:19.925Z,6.77
2022-10-16T00:40:07.950Z,5.43
2022-10-16T00:42:55.118Z,5.73
2022-10-16T00:45:42.704Z,5.30
2022-10-16T00:48:30.595Z,9.93
2022-10-16T00:51:22.740Z,6.60
2022-10-16T00:54:16.373Z,2.40
2022-10-16T00:57:06.749Z,2.20
2022-10-16T00:59:55.025Z,3.50
2022-10-16T01:02:42.730Z,2.63
2022-10-16T01:05:36.922Z,5.07
2022-10-16T01:08:34.963Z,3.60
2022-10-16T01:11:27.006Z,3.20
2022-10-16T01:14:31.212Z,3.97
2022-10-16T01:17:35.661Z,4.20
2022-10-16T01:20:35.340Z,7.57
2022-10-16T01:23:25.612Z,5.67
2022-10-16T01:26:29.680Z,2.20
2022-10-16T01:29:26.336Z,2.87
2022-10-16T01:32:19.157Z,2.50
2022-10-16T01:35:14.813Z,2.57
2022-10-16T01:38:15.142Z,2.23
2022-10-16T01:41:09.012Z,1.57
2022-10-16T01:44:02.964Z,3.80
2022-10-16T01:46:53.086Z,2.43
2022-10-16T01:49:41.905Z,4.67
2022-10-16T01:52:30.927Z,3.73
2022-10-16T01:55:25.528Z,3.07
2022-10-16T01:58:15.412Z,6.30
2022-10-16T02:01:05.186Z,5.07
2022-10-16T02:03:57.353Z,5.07
2022-10-16T02:06:44.644Z,2.83
2022-10-16T02:09:34.890Z,8.73
2022-10-16T02:12:31.836Z,2.73
2022-10-16T02:15:19.058Z,3.23
2022-10-16T02:18:08.146Z,3.80
2022-10-16T02:21:03.179Z,2.60
2022-10-16T02:24:25.176Z,1.55
2022-10-16T02:27:21.967Z,3.83
2022-10-16T02:30:49.006Z,2.00
2022-10-16T02:36:55.896Z,4.37
2022-10-16T02:39:43.258Z,2.57
2022-10-16T02:42:35.135Z,3.47
2022-10-16T02:45:23.831Z,2.10
2022-10-16T02:48:11.269Z,1.93
2022-10-16T02:50:58.736Z,2.17
2022-10-16T02:53:46.168Z,5.87
2022-10-16T02:56:33.312Z,5.33
2022-10-16T02:59:20.845Z,1.73
2022-10-16T03:02:08.314Z,2.83
2022-10-16T03:04:55.578Z,4.83
2022-10-16T03:07:42.864Z,2.60
2022-10-16T03:10:30.439Z,3.93
2022-10-16T03:13:17.919Z,3.90
2022-10-16T03:16:05.572Z,5.13
2022-10-16T03:21:56.725Z,3.83
2022-10-16T03:24:44.452Z,6.00
2022-10-16T03:27:31.979Z,3.40
2022-10-16T03:30:19.295Z,4.83
2022-10-16T03:33:06.891Z,1.87
2022-10-16T03:35:55.108Z,4.03
2022-10-16T03:38:42.587Z,2.43
2022-10-16T03:41:36.795Z,2.97
2022-10-16T03:44:24.013Z,6.03
2022-10-16T03:47:11.432Z,6.40
2022-10-16T03:49:58.836Z,7.10
2022-10-16T03:52:46.241Z,5.47
2022-10-16T03:55:33.665Z,3.70
2022-10-16T03:58:21.227Z,2.97
2022-10-16T04:01:08.762Z,6.13
2022-10-16T04:03:56.191Z,1.80
2022-10-16T04:06:43.250Z,4.07
2022-10-16T04:09:30.690Z,6.53
2022-10-16T04:12:17.820Z,3.97
2022-10-16T04:15:05.280Z,4.07
2022-10-16T04:17:53.286Z,2.90
2022-10-16T04:20:42.070Z,4.83
2022-10-16T04:23:29.468Z,3.90
2022-10-16T04:26:16.882Z,6.47
2022-10-16T04:29:04.396Z,5.13
2022-10-16T04:31:51.942Z,2.03
2022-10-16T04:34:40.566Z,4.57
2022-10-16T04:37:28.888Z,3.33
2022-10-16T04:40:16.760Z,2.80
2022-10-16T04:43:05.211Z,2.87
2022-10-16T04:45:53.044Z,3.97
2022-10-16T04:48:40.424Z,3.47
2022-10-16T04:51:28.648Z,2.43
2022-10-16T04:54:15.935Z,2.57
2022-10-16T04:57:03.508Z,5.50
2022-10-16T04:59:50.629Z,4.07
2022-10-16T05:02:38.131Z,5.13
2022-10-16T05:05:26.044Z,5.63
2022-10-16T05:08:15.263Z,4.10
2022-10-16T05:11:02.911Z,6.53
2022-10-16T05:13:53.536Z,3.80
2022-10-16T05:16:43.304Z,3.73
2022-10-16T05:19:30.730Z,4.10
2022-10-16T05:22:18.876Z,3.53
2022-10-16T05:25:06.392Z,5.47
2022-10-16T05:27:53.593Z,4.87
2022-10-16T05:30:40.980Z,3.33
2022-10-16T05:33:28.512Z,6.33
2022-10-16T05:36:16.054Z,5.97
2022-10-16T05:39:04.445Z,5.03
2022-10-16T05:41:51.845Z,9.80
2022-10-16T05:44:39.253Z,6.03
2022-10-16T05:47:27.229Z,3.57
2022-10-16T05:50:15.121Z,3.87
2022-10-16T05:53:02.518Z,4.63
2022-10-16T05:55:53.781Z,5.60
2022-10-16T05:58:45.518Z,6.30
2022-10-16T06:01:33.591Z,6.23
2022-10-16T06:04:20.687Z,5.90
2022-10-16T06:07:07.766Z,3.37
2022-10-16T06:09:55.246Z,4.60
2022-10-16T06:12:42.336Z,4.90
2022-10-16T06:15:29.918Z,5.73
2022-10-16T06:18:17.024Z,6.50
2022-10-16T06:21:13.658Z,3.77
2022-10-16T06:24:01.297Z,8.30
2022-10-16T06:26:48.414Z,7.00
2022-10-16T06:29:35.836Z,4.00
2022-10-16T06:32:23.272Z,5.27
2022-10-16T06:35:10.746Z,5.33
2022-10-16T06:37:58.253Z,4.97
2022-10-16T06:40:45.762Z,3.70
2022-10-16T06:43:33.604Z,3.87
2022-10-16T06:46:23.678Z,5.07
2022-10-16T06:49:11.547Z,5.37
2022-10-16T06:51:58.959Z,4.30
2022-10-16T06:54:46.416Z,3.63
2022-10-16T06:57:34.149Z,7.50
2022-10-16T07:00:21.463Z,7.23
2022-10-16T07:03:08.641Z,7.00
2022-10-16T07:05:55.761Z,3.60
2022-10-16T07:08:44.946Z,6.10
2022-10-16T07:11:33.055Z,4.90
2022-10-16T07:14:22.211Z,6.30
2022-10-16T07:17:09.755Z,9.93
2022-10-16T07:19:57.261Z,8.80
2022-10-16T07:22:44.420Z,8.27
2022-10-16T07:25:31.466Z,4.43
2022-10-16T07:28:19.002Z,4.40
2022-10-16T07:31:11.701Z,5.10
2022-10-16T07:34:00.595Z,3.70
2022-10-16T07:36:51.770Z,5.23
2022-10-16T07:39:39.211Z,6.70
2022-10-16T07:42:28.022Z,4.97
2022-10-16T07:45:15.543Z,5.97
2022-10-16T07:48:02.617Z,7.93
2022-10-16T07:50:49.870Z,8.17
2022-10-16T07:53:37.026Z,8.73
2022-10-16T07:56:24.932Z,7.50
2022-10-16T07:59:12.464Z,6.20
2022-10-16T08:01:59.900Z,10.17
2022-10-16T08:04:48.345Z,6.73
2022-10-16T08:07:35.748Z,6.60
2022-10-16T08:10:25.444Z,7.03
2022-10-16T08:13:15.963Z,8.60
2022-10-16T08:16:08.666Z,6.63
2022-10-16T08:18:56.093Z,7.93
2022-10-16T08:21:43.512Z,8.57
2022-10-16T08:24:32.156Z,11.07
2022-10-16T08:27:19.636Z,6.87
2022-10-16T08:33:23.594Z,7.53
2022-10-16T08:36:11.756Z,9.20
2022-10-16T08:38:59.196Z,10.67
2022-10-16T08:42:16.998Z,6.03
2022-10-16T08:45:27.674Z,10.80
2022-10-16T08:48:26.923Z,9.63
2022-10-16T08:51:24.904Z,10.93
2022-10-16T08:54:29.887Z,7.60
2022-10-16T08:57:23.090Z,11.20
2022-10-16T09:00:22.581Z,8.77
2022-10-16T09:03:31.333Z,8.77
2022-10-16T09:06:45.926Z,12.27
2022-10-16T09:10:00.957Z,9.30
2022-10-16T09:12:54.280Z,8.60
2022-10-16T09:15:55.623Z,7.80
2022-10-16T09:19:12.992Z,13.70
2022-10-16T09:22:10.791Z,10.20
2022-10-16T09:25:02.269Z,11.23
2022-10-16T09:27:52.293Z,8.67
2022-10-16T09:30:40.530Z,12.83
2022-10-16T09:33:36.225Z,12.57
2022-10-16T09:36:26.153Z,12.87
2022-10-16T09:39:13.625Z,10.53
2022-10-16T09:42:01.682Z,14.73
2022-10-16T09:44:51.697Z,12.80
2022-10-16T09:47:43.511Z,8.93
2022-10-16T09:50:30.698Z,12.23
2022-10-16T09:53:20.582Z,16.40
2022-10-16T09:56:10.447Z,15.70
2022-10-16T09:59:09.717Z,12.13
2022-10-16T10:01:57.509Z,13.53
2022-10-16T10:04:55.685Z,14.47
2022-10-16T10:07:44.747Z,19.50
2022-10-16T10:10:34.217Z,15.20
2022-10-16T10:13:23.783Z,12.53
2022-10-16T10:16:10.861Z,17.77
2022-10-16T10:19:01.734Z,11.63
2022-10-16T10:21:50.304Z,15.93
2022-10-16T10:24:39.183Z,13.43
2022-10-16T10:27:49.697Z,11.67
2022-10-16T10:34:12.328Z,13.67
2022-10-16T10:37:07.145Z,22.63
2022-10-16T10:40:09.180Z,14.80
2022-10-16T10:42:57.551Z,16.40
2022-10-16T10:45:48.616Z,11.27
2022-10-16T10:48:51.178Z,16.43
2022-10-16T10:52:00.097Z,11.80
2022-10-16T10:55:16.891Z,14.57
2022-10-16T10:58:16.234Z,15.37
2022-10-16T11:01:14.421Z,16.37
2022-10-16T11:07:06.231Z,15.17
2022-10-16T11:13:36.004Z,12.33
2022-10-16T11:16:29.646Z,15.17
2022-10-16T11:19:35.291Z,10.47
2022-10-16T11:22:37.484Z,10.83
2022-10-16T11:25:33.605Z,10.77
2022-10-16T11:31:22.866Z,9.93
2022-10-16T11:34:25.041Z,8.13
2022-10-16T11:37:32.153Z,11.70
2022-10-16T11:40:38.661Z,10.17
2022-10-16T11:43:42.254Z,15.10
2022-10-16T11:46:32.032Z,7.37
2022-10-16T11:49:26.322Z,11.93
2022-10-16T11:52:24.219Z,11.13
2022-10-16T11:55:22.333Z,14.03
2022-10-16T11:58:46.474Z,11.60
2022-10-16T12:01:40.071Z,13.17
2022-10-16T12:04:40.253Z,10.43
2022-10-16T12:07:56.177Z,9.63
2022-10-16T12:10:48.296Z,12.43
2022-10-16T12:13:38.739Z,8.00
2022-10-16T12:16:26.205Z,7.17
2022-10-16T12:19:18.236Z,7.30
2022-10-16T12:22:19.233Z,10.97
2022-10-16T12:25:20.089Z,10.20
2022-10-16T12:28:16.165Z,6.40
2022-10-16T12:31:06.449Z,7.53
2022-10-16T12:34:02.829Z,9.97
2022-10-16T12:36:50.837Z,9.63
2022-10-16T12:39:39.003Z,7.23
2022-10-16T12:45:32.411Z,7.67
2022-10-16T12:48:29.106Z,11.37
2022-10-16T12:51:36.889Z,5.87
2022-10-16T12:54:31.168Z,11.13
2022-10-16T12:57:21.446Z,7.93
2022-10-16T13:00:14.712Z,7.43
2022-10-16T13:03:02.111Z,8.93
2022-10-16T13:06:07.803Z,5.93
2022-10-16T13:12:23.481Z,9.23
2022-10-16T13:15:39.714Z,10.17
2022-10-16T13:18:39.362Z,9.23
2022-10-16T13:21:45.441Z,9.17
2022-10-16T13:25:00.607Z,6.10
2022-10-16T13:28:06.674Z,7.60
2022-10-16T13:30:57.071Z,6.37
2022-10-16T13:33:49.878Z,9.07
2022-10-16T13:36:45.833Z,9.03
2022-10-16T13:39:33.841Z,11.10
2022-10-16T13:42:29.301Z,9.60
2022-10-16T13:45:24.824Z,6.77
2022-10-16T13:48:26.249Z,11.33
2022-10-16T13:51:15.570Z,6.97
2022-10-16T13:54:02.807Z,9.33
2022-10-16T13:57:03.168Z,10.17
2022-10-16T13:59:56.871Z,14.37
2022-10-16T14:02:44.496Z,7.73
2022-10-16T14:05:32.043Z,11.03
2022-10-16T14:08:19.598Z,7.43
2022-10-16T14:11:07.061Z,12.07
2022-10-16T14:13:55.339Z,6.87
2022-10-16T14:19:39.816Z,9.30
2022-10-16T14:22:38.607Z,11.30
2022-10-16T14:25:29.692Z,11.07
2022-10-16T14:28:23.959Z,10.00
2022-10-16T14:31:20.948Z,8.47
2022-10-16T14:34:28.384Z,8.53
2022-10-16T14:37:29.818Z,9.93
2022-10-16T14:40:17.578Z,15.00
2022-10-16T14:43:06.184Z,10.57
2022-10-16T14:45:56.794Z,13.57
2022-10-16T14:48:47.634Z,7.00
2022-10-16T14:51:35.192Z,12.60
2022-10-16T14:54:22.450Z,10.23
2022-10-16T14:57:21.983Z,8.40
2022-10-16T15:00:22.343Z,11.93
2022-10-16T15:03:09.863Z,12.83
2022-10-16T15:05:57.012Z,9.20
2022-10-16T15:08:44.698Z,9.43
2022-10-16T15:11:34.342Z,12.53
2022-10-16T15:14:22.203Z,9.70
2022-10-16T15:17:12.221Z,12.27
2022-10-16T15:20:00.126Z,8.30
2022-10-16T15:22:47.672Z,13.90
2022-10-16T15:25:40.725Z,12.10
2022-10-16T15:28:28.323Z,10.83
2022-10-16T15:31:15.789Z,15.40
2022-10-16T15:34:06.812Z,7.50
2022-10-16T15:36:56.148Z,10.50
2022-10-16T15:39:43.646Z,10.73
2022-10-16T15:42:31.159Z,14.83
2022-10-16T15:45:20.142Z,14.80
2022-10-16T15:48:11.241Z,13.90
2022-10-16T15:50:58.880Z,8.90
2022-10-16T15:53:47.351Z,16.80
2022-10-16T15:56:34.620Z,10.23
2022-10-16T15:59:22.085Z,11.13
2022-10-16T16:02:10.348Z,11.47
2022-10-16T16:04:58.029Z,16.90
2022-10-16T16:07:45.567Z,8.57
2022-10-16T16:10:33.097Z,8.23
2022-10-16T16:13:20.599Z,11.30
2022-10-16T16:16:13.352Z,11.80
2022-10-16T16:19:00.897Z,11.30
2022-10-16T16:21:49.418Z,11.23
2022-10-16T16:24:37.026Z,15.47
2022-10-16T16:27:26.214Z,8.80
2022-10-16T16:30:18.366Z,13.80
2022-10-16T16:33:07.465Z,17.47
2022-10-16T16:36:03.391Z,9.60
2022-10-16T16:38:50.664Z,12.27
2022-10-16T16:41:38.195Z,9.23
2022-10-16T16:44:25.964Z,17.93
2022-10-16T16:47:13.408Z,13.00
2022-10-16T16:50:05.640Z,16.83
2022-10-16T16:52:53.104Z,13.30
2022-10-16T16:55:40.618Z,16.27
2022-10-16T16:58:28.141Z,12.13
2022-10-16T17:01:19.970Z,14.77
2022-10-16T17:04:08.955Z,10.37
2022-10-16T17:06:56.901Z,17.83
2022-10-16T17:09:44.182Z,12.13
2022-10-16T17:12:31.845Z,13.37
2022-10-16T17:15:19.139Z,8.87
2022-10-16T17:18:06.361Z,16.57
2022-10-16T17:20:53.581Z,10.07
2022-10-16T17:23:41.140Z,11.43
2022-10-16T17:26:29.168Z,11.60
2022-10-16T17:29:18.695Z,10.67
2022-10-16T17:32:06.007Z,18.50
2022-10-16T17:34:53.638Z,13.03
2022-10-16T17:37:42.092Z,15.23
2022-10-16T17:40:29.180Z,12.57
2022-10-16T17:43:16.657Z,12.43
2022-10-16T17:46:04.478Z,15.33
2022-10-16T17:48:54.507Z,15.83
2022-10-16T17:51:42.425Z,21.30
2022-10-16T17:54:29.865Z,19.03
2022-10-16T17:57:17.369Z,17.20
2022-10-16T18:00:06.185Z,15.63
2022-10-16T18:02:53.685Z,18.77
2022-10-16T18:05:41.151Z,17.00
2022-10-16T18:08:28.908Z,13.00
2022-10-16T18:11:16.488Z,14.73
2022-10-16T18:14:04.275Z,12.73
2022-10-16T18:16:53.020Z,12.87
2022-10-16T18:19:40.206Z,14.67
2022-10-16T18:22:29.118Z,16.00
2022-10-16T18:25:16.659Z,16.33
2022-10-16T18:28:22.402Z,13.97
2022-10-16T18:31:17.388Z,16.88
2022-10-16T18:34:05.501Z,15.00
2022-10-16T18:36:55.162Z,16.83
2022-10-16T18:39:47.367Z,14.03
2022-10-16T18:42:34.471Z,16.07
2022-10-16T18:45:22.012Z,13.50
2022-10-16T18:48:09.128Z,14.67
2022-10-16T18:51:08.705Z,13.73
2022-10-16T18:54:00.205Z,17.07
2022-10-16T18:56:47.347Z,18.17
2022-10-16T18:59:34.545Z,13.23
2022-10-16T19:05:17.841Z,14.60
2022-10-16T19:08:05.561Z,10.90
2022-10-16T19:10:53.066Z,18.27
2022-10-16T19:13:40.220Z,15.47
2022-10-16T19:16:33.763Z,11.13
2022-10-16T19:19:22.543Z,17.80
2022-10-16T19:22:17.320Z,12.90
2022-10-16T19:25:05.067Z,15.48
2022-10-16T19:27:52.255Z,14.03
2022-10-16T19:30:40.650Z,16.27
2022-10-16T19:33:27.760Z,21.33
2022-10-16T19:36:18.249Z,17.30
2022-10-16T19:39:10.455Z,14.97
2022-10-16T19:41:57.920Z,16.67
2022-10-16T19:44:45.338Z,16.73
2022-10-16T19:47:32.809Z,13.33
2022-10-16T19:50:20.332Z,12.57
2022-10-16T19:53:07.619Z,14.40
2022-10-16T19:55:55.857Z,10.60
2022-10-16T19:58:44.397Z,18.57
2022-10-16T20:01:32.333Z,18.67
2022-10-16T20:04:19.928Z,17.60
2022-10-16T20:07:07.405Z,19.10
2022-10-16T20:09:54.984Z,8.93
2022-10-16T20:12:42.741Z,11.20
2022-10-16T20:15:29.947Z,18.70
2022-10-16T20:18:17.827Z,11.37
2022-10-16T20:21:17.229Z,15.87
2022-10-16T20:24:06.363Z,15.33
2022-10-16T20:26:53.843Z,11.27
2022-10-16T20:29:41.276Z,11.53
2022-10-16T20:32:28.482Z,13.80
2022-10-16T20:35:16.234Z,17.67
2022-10-16T20:38:04.095Z,20.07
2022-10-16T20:40:51.555Z,13.43
2022-10-16T20:43:47.711Z,10.83
2022-10-16T20:46:35.247Z,12.07
2022-10-16T20:49:36.136Z,12.53
2022-10-16T20:52:27.351Z,13.37
2022-10-16T20:55:16.207Z,16.53
2022-10-16T20:58:05.124Z,11.13
2022-10-16T21:00:52.240Z,17.13
2022-10-16T21:03:39.925Z,16.20
2022-10-16T21:06:27.992Z,8.53
2022-10-16T21:09:15.505Z,10.80
2022-10-16T21:12:03.020Z,12.90
2022-10-16T21:15:09.836Z,9.20
2022-10-16T21:17:57.982Z,9.77
2022-10-16T21:20:45.470Z,9.13
2022-10-16T21:23:33.832Z,9.80
2022-10-16T21:26:29.127Z,16.17
2022-10-16T21:29:16.919Z,15.15
2022-10-16T21:32:04.837Z,7.23
2022-10-16T21:34:52.337Z,8.67
2022-10-16T21:37:39.815Z,9.93
2022-10-16T21:40:29.362Z,8.50
2022-10-16T21:43:16.535Z,9.77
2022-10-16T21:46:04.015Z,8.43
2022-10-16T21:48:55.863Z,14.27
2022-10-16T21:51:46.221Z,11.37
2022-10-16T21:54:33.666Z,12.07
2022-10-16T21:57:21.091Z,10.57
2022-10-16T22:00:09.943Z,13.07
2022-10-16T22:02:58.539Z,7.33
2022-10-16T22:05:46.021Z,10.93
2022-10-16T22:08:34.965Z,13.17
2022-10-16T22:11:26.369Z,9.13
2022-10-16T22:14:16.488Z,9.33
2022-10-16T22:17:03.626Z,10.67
2022-10-16T22:19:51.165Z,6.77
2022-10-16T22:22:38.581Z,12.40
2022-10-16T22:25:25.787Z,11.67
2022-10-16T22:28:13.316Z,7.23
2022-10-16T22:31:09.854Z,6.60
2022-10-16T22:34:00.997Z,11.87
2022-10-16T22:36:49.977Z,7.70
2022-10-16T22:39:37.407Z,7.73
2022-10-16T22:42:25.053Z,11.40
2022-10-16T22:45:12.232Z,7.23
2022-10-16T22:48:00.068Z,10.47
2022-10-16T22:50:48.588Z,7.97
2022-10-16T22:53:36.173Z,6.87
2022-10-16T22:56:23.700Z,8.00
2022-10-16T22:59:11.442Z,7.87
2022-10-16T23:01:58.623Z,7.70
2022-10-16T23:04:46.053Z,8.80
2022-10-16T23:07:33.592Z,12.20
2022-10-16T23:10:24.827Z,7.30
2022-10-16T23:13:12.725Z,8.43
2022-10-16T23:16:00.257Z,11.60
2022-10-16T23:18:49.175Z,10.83
2022-10-16T23:21:36.653Z,9.13
2022-10-16T23:24:23.738Z,6.93
2022-10-16T23:32:10.044Z,6.70
2022-10-16T23:34:57.606Z,8.30
2022-10-16T23:37:45.119Z,11.33
2022-10-16T23:40:32.564Z,7.43
2022-10-16T23:43:20.122Z,9.33
2022-10-16T23:46:09.762Z,9.30
2022-10-16T23:48:57.146Z,8.50
2022-10-16T23:51:44.715Z,5.87
2022-10-16T23:54:32.120Z,5.50
